Terminal Aerodrome Forecast
Issued by NWS

Home | Current Version | Previous Version | Text Only | Print | Product List | Glossary On
Versions: 1 2 3 4 5 6 7 8 9 10 11 12 13 14 15 16 17 18 19 20 21 22 23 24
000
FTUS45 KCYS 291100
TAFRWL
TAF
KRWL 291129Z 2912/3012 VRB04KT P6SM VCSH SCT080
     FM291500 15007KT P6SM -SHRA SCT030 BKN050
     FM291800 04012KT 4SM -TSRA SCT030CB OVC050
     FM300300 06014KT 2SM -SHRA VCTS BKN015CB OVC025=

USA.gov is the U.S. government's official web portal to all federal, state and local government web resources and services.